Time;durP1;ratioP1;P1;durP2;ratioP2;P2;SDS_P1;SDS_P2;PMS_P1;PMS_P2;Temp;Humidity;BMP_temperature;BMP_pressure;BME280_temperature;BME280_humidity;BME280_pressure;Samples;Min_cycle;Max_cycle;Signal;HPM_P1;HPM_P2
2021/03/01 00:00:20;;;;;;;16.15;9.05;;;2.10;67.30;;;;;;5000958;28;20033;-65
2021/03/01 00:02:50;;;;;;;18.90;9.35;;;2.10;67.50;;;;;;5000294;28;20031;-65
2021/03/01 00:05:16;;;;;;;18.80;10.35;;;2.10;67.50;;;;;;5000820;28;20116;-65
2021/03/01 00:07:48;;;;;;;19.00;9.93;;;2.00;67.50;;;;;;4999365;28;20571;-65
2021/03/01 00:10:20;;;;;;;22.08;10.93;;;2.00;67.50;;;;;;5001121;28;20030;-64
2021/03/01 00:12:51;;;;;;;23.15;10.57;;;2.00;67.60;;;;;;4995525;28;20038;-65
2021/03/01 00:15:23;;;;;;;20.63;10.52;;;2.00;67.70;;;;;;4999255;28;20026;-65
2021/03/01 00:17:52;;;;;;;21.67;10.75;;;1.90;67.70;;;;;;4999365;28;20038;-65
2021/03/01 00:20:22;;;;;;;23.00;10.98;;;1.90;67.70;;;;;;4998756;28;20066;-65
2021/03/01 00:22:52;;;;;;;18.85;9.82;;;1.80;67.90;;;;;;5000282;28;20041;-65
2021/03/01 00:25:21;;;;;;;20.48;9.27;;;1.80;68.00;;;;;;5000372;28;20197;-64
2021/03/01 00:27:46;;;;;;;18.20;9.05;;;1.80;68.30;;;;;;4996495;28;20747;-65
2021/03/01 00:30:19;;;;;;;15.55;8.98;;;1.70;68.30;;;;;;5006384;28;20038;-65
2021/03/01 00:32:49;;;;;;;16.00;8.68;;;1.70;68.70;;;;;;4998114;28;20030;-65
2021/03/01 00:35:19;;;;;;;15.40;9.00;;;1.70;68.70;;;;;;4999633;28;20026;-65
2021/03/01 00:37:47;;;;;;;14.02;8.20;;;1.70;68.70;;;;;;4999819;28;20034;-65
2021/03/01 00:40:17;;;;;;;13.05;7.43;;;1.70;68.70;;;;;;5001457;28;20034;-65
2021/03/01 00:42:43;;;;;;;13.52;7.97;;;1.70;68.80;;;;;;5004894;28;20038;-65
2021/03/01 00:45:14;;;;;;;14.55;8.18;;;1.70;68.70;;;;;;4998303;28;20374;-65
2021/03/01 00:47:39;;;;;;;13.63;7.65;;;1.70;68.70;;;;;;5000235;28;20775;-65
2021/03/01 00:50:11;;;;;;;13.00;7.65;;;1.70;68.70;;;;;;4999660;28;20038;-65
2021/03/01 00:52:39;;;;;;;12.30;6.93;;;1.70;68.70;;;;;;4998643;28;20030;-65
2021/03/01 00:55:08;;;;;;;15.07;7.68;;;1.70;68.80;;;;;;4998235;28;20402;-65
2021/03/01 00:57:36;;;;;;;14.13;7.78;;;1.70;68.90;;;;;;4999403;28;20026;-65
2021/03/01 01:00:10;;;;;;;14.02;8.00;;;1.80;68.90;;;;;;4998962;28;20525;-65
2021/03/01 01:02:40;;;;;;;10.23;5.82;;;1.80;68.90;;;;;;4999722;28;20041;-65
2021/03/01 01:05:14;;;;;;;16.65;8.23;;;1.80;68.70;;;;;;5004365;28;20453;-65
2021/03/01 01:07:42;;;;;;;16.48;8.60;;;1.80;68.60;;;;;;4997548;28;20034;-65
2021/03/01 01:10:10;;;;;;;16.85;8.10;;;1.80;68.40;;;;;;5004041;28;20038;-65
2021/03/01 01:12:41;;;;;;;16.10;9.13;;;1.80;69.20;;;;;;4996790;28;20049;-65
2021/03/01 01:15:12;;;;;;;16.73;9.35;;;1.80;68.90;;;;;;4999406;28;20521;-65
2021/03/01 01:17:37;;;;;;;17.63;9.38;;;1.70;68.30;;;;;;4997721;28;20118;-65
2021/03/01 01:20:12;;;;;;;16.70;9.13;;;1.70;68.20;;;;;;4999146;28;20147;-65
2021/03/01 01:22:41;;;;;;;17.35;8.85;;;1.70;68.50;;;;;;4999096;28;20041;-65
2021/03/01 01:25:11;;;;;;;16.48;8.75;;;1.60;68.40;;;;;;4998290;28;20502;-65
2021/03/01 01:27:40;;;;;;;16.52;8.77;;;1.60;68.40;;;;;;5002694;28;20033;-65
2021/03/01 01:30:08;;;;;;;18.58;9.20;;;1.60;68.40;;;;;;4999029;28;20502;-65
2021/03/01 01:32:34;;;;;;;16.02;8.65;;;1.60;68.60;;;;;;4998005;28;20451;-65
2021/03/01 01:35:04;;;;;;;17.42;9.15;;;1.60;69.40;;;;;;5004734;28;20035;-65
2021/03/01 01:37:34;;;;;;;16.77;8.75;;;1.60;68.60;;;;;;4998990;28;20019;-65
2021/03/01 01:40:08;;;;;;;17.60;9.05;;;1.60;68.50;;;;;;4999997;28;20817;-65
2021/03/01 01:42:40;;;;;;;16.58;9.23;;;1.50;68.40;;;;;;5012826;28;20030;-65
2021/03/01 01:45:19;;;;;;;17.70;8.52;;;1.50;68.30;;;;;;4997882;28;20107;-65
2021/03/01 01:47:46;;;;;;;15.75;7.95;;;1.50;68.40;;;;;;4998112;28;20030;-65
2021/03/01 01:50:17;;;;;;;14.57;7.57;;;1.50;68.20;;;;;;4998695;28;20034;-65
2021/03/01 01:52:50;;;;;;;16.60;8.55;;;1.50;68.40;;;;;;5001385;28;20030;-65
2021/03/01 01:55:21;;;;;;;15.15;8.35;;;1.50;68.40;;;;;;4997028;28;20033;-65
2021/03/01 01:57:51;;;;;;;14.52;8.23;;;1.50;68.40;;;;;;4997181;28;20549;-65
2021/03/01 02:00:40;;;;;;;16.55;8.63;;;1.50;69.10;;;;;;5004769;28;20095;-65
2021/03/01 02:03:05;;;;;;;17.67;8.73;;;1.50;68.40;;;;;;4997990;28;20508;-65
2021/03/01 02:05:34;;;;;;;17.85;8.85;;;1.40;68.20;;;;;;4997634;28;20438;-65
2021/03/01 02:08:39;;;;;;;15.40;8.32;;;1.30;68.10;;;;;;4997058;28;20042;-66
2021/03/01 02:11:35;;;;;;;17.27;8.23;;;1.30;68.80;;;;;;4996135;28;21149;-65
2021/03/01 02:14:34;;;;;;;17.75;8.90;;;1.20;68.80;;;;;;4998734;28;20266;-65
2021/03/01 02:17:04;;;;;;;16.52;8.90;;;1.20;68.90;;;;;;4996626;28;20034;-65
2021/03/01 02:19:36;;;;;;;15.95;7.85;;;1.20;68.60;;;;;;4996437;28;20402;-65
2021/03/01 02:22:01;;;;;;;14.13;8.13;;;1.20;68.90;;;;;;4997556;28;20458;-65
2021/03/01 02:24:49;;;;;;;15.10;8.13;;;1.20;68.90;;;;;;4995585;28;20041;-66
2021/03/01 02:27:21;;;;;;;12.07;7.07;;;1.20;69.40;;;;;;4997606;28;20456;-65
2021/03/01 02:29:57;;;;;;;15.63;8.73;;;1.20;69.10;;;;;;4997760;28;20030;-65
2021/03/01 02:32:26;;;;;;;15.15;8.40;;;1.20;69.10;;;;;;4998509;28;20440;-65
2021/03/01 02:34:59;;;;;;;17.98;9.13;;;1.30;68.90;;;;;;4995926;28;20050;-65
2021/03/01 02:37:32;;;;;;;15.60;7.72;;;1.30;68.90;;;;;;4998185;28;20034;-65
2021/03/01 02:40:05;;;;;;;14.93;8.27;;;1.30;68.90;;;;;;4997460;28;20058;-65
2021/03/01 02:42:35;;;;;;;17.08;8.55;;;1.30;68.90;;;;;;5001784;28;20406;-65
2021/03/01 02:45:02;;;;;;;15.18;7.75;;;1.30;68.90;;;;;;4996957;28;20509;-65
2021/03/01 02:47:33;;;;;;;14.73;8.25;;;1.30;68.90;;;;;;4998731;28;20038;-65
2021/03/01 02:50:05;;;;;;;15.73;8.00;;;1.30;68.90;;;;;;4996785;28;20038;-65
2021/03/01 02:52:34;;;;;;;15.77;8.50;;;1.30;68.90;;;;;;4997699;28;20486;-65
2021/03/01 02:55:06;;;;;;;13.10;7.95;;;1.30;68.80;;;;;;4997181;28;20109;-65
2021/03/01 02:57:36;;;;;;;16.30;8.52;;;1.30;68.80;;;;;;4997343;28;20529;-66
2021/03/01 03:00:11;;;;;;;16.02;8.55;;;1.30;68.70;;;;;;4998476;28;20037;-66
2021/03/01 03:02:44;;;;;;;15.07;7.95;;;1.30;68.70;;;;;;4997980;28;20030;-65
2021/03/01 03:05:15;;;;;;;14.60;7.93;;;1.30;68.70;;;;;;4998445;28;20026;-65
2021/03/01 03:07:42;;;;;;;14.85;8.10;;;1.20;68.90;;;;;;4999510;28;20405;-65
2021/03/01 03:10:15;;;;;;;14.52;8.20;;;1.10;68.90;;;;;;5000068;28;20053;-65
2021/03/01 03:12:44;;;;;;;14.60;8.63;;;1.20;68.90;;;;;;4998081;28;20117;-65
2021/03/01 03:15:20;;;;;;;17.20;8.45;;;1.10;68.90;;;;;;5001837;28;20030;-65
2021/03/01 03:17:51;;;;;;;15.18;8.68;;;1.10;69.00;;;;;;5000561;28;20030;-65
2021/03/01 03:20:19;;;;;;;13.88;7.88;;;1.00;69.00;;;;;;5000971;28;20490;-65
2021/03/01 03:22:45;;;;;;;13.68;8.25;;;1.00;69.00;;;;;;5001388;28;20093;-65
2021/03/01 03:25:14;;;;;;;15.13;8.15;;;0.90;69.10;;;;;;5002111;28;20063;-65
2021/03/01 03:27:40;;;;;;;15.95;8.05;;;0.90;69.10;;;;;;5001703;28;20111;-65
2021/03/01 03:30:12;;;;;;;12.70;7.78;;;0.90;69.10;;;;;;5001300;28;20038;-65
2021/03/01 03:32:44;;;;;;;13.88;7.53;;;0.80;69.10;;;;;;5000008;28;20037;-65
2021/03/01 03:35:12;;;;;;;17.77;8.10;;;0.80;69.20;;;;;;5000486;28;20057;-65
2021/03/01 03:37:45;;;;;;;14.93;7.95;;;0.70;69.30;;;;;;4999280;28;20034;-65
2021/03/01 03:40:15;;;;;;;13.00;7.45;;;0.70;69.60;;;;;;4998465;28;20061;-66
2021/03/01 03:42:44;;;;;;;15.57;7.72;;;0.70;69.60;;;;;;4999155;28;20046;-65
2021/03/01 03:45:15;;;;;;;15.23;7.45;;;0.60;69.60;;;;;;5000937;28;20038;-65
2021/03/01 03:47:50;;;;;;;12.50;7.55;;;0.60;69.80;;;;;;4999769;28;20080;-65
2021/03/01 03:50:23;;;;;;;14.27;7.88;;;0.60;69.80;;;;;;4999956;28;20044;-65
2021/03/01 03:52:53;;;;;;;13.38;7.40;;;0.60;69.60;;;;;;5000224;28;20371;-65
2021/03/01 03:55:22;;;;;;;13.43;7.30;;;0.60;69.60;;;;;;5001907;28;20472;-65
2021/03/01 03:58:12;;;;;;;13.88;7.35;;;0.60;69.60;;;;;;5000475;28;20050;-65
2021/03/01 04:00:43;;;;;;;12.82;6.65;;;0.60;70.60;;;;;;4997362;28;20108;-64
2021/03/01 04:03:15;;;;;;;13.98;6.72;;;0.50;69.40;;;;;;5000096;28;20121;-65
2021/03/01 04:05:43;;;;;;;14.18;7.20;;;0.50;69.40;;;;;;5000336;28;20038;-65
2021/03/01 04:08:16;;;;;;;14.10;7.57;;;0.50;69.30;;;;;;5000079;28;20042;-65
2021/03/01 04:10:51;;;;;;;12.60;7.13;;;0.50;69.40;;;;;;4995364;28;20050;-65
2021/03/01 04:13:19;;;;;;;;;;;0.50;69.30;;;;;;5000382;28;20122;-65
2021/03/01 04:15:52;;;;;;;14.30;6.60;;;0.50;69.80;;;;;;4999096;28;20293;-65
2021/03/01 04:18:26;;;;;;;14.20;7.70;;;0.40;69.10;;;;;;5000964;28;20035;-65
2021/03/01 04:21:02;;;;;;;18.00;7.70;;;0.40;69.20;;;;;;4999388;28;20026;-65
2021/03/01 04:23:34;;;;;;;13.57;7.30;;;0.40;69.30;;;;;;5000317;28;20038;-65
2021/03/01 04:26:07;;;;;;;20.92;7.82;;;0.30;69.30;;;;;;4999894;28;20038;-65
2021/03/01 04:28:36;;;;;;;15.35;8.05;;;0.30;69.40;;;;;;5000328;28;20038;-65
2021/03/01 04:31:08;;;;;;;13.88;7.50;;;0.30;69.30;;;;;;5000141;28;20061;-65
2021/03/01 04:33:36;;;;;;;15.60;7.53;;;0.30;69.30;;;;;;5000277;28;20026;-65
2021/03/01 04:36:08;;;;;;;16.40;7.78;;;0.30;69.20;;;;;;5000658;28;20563;-64
2021/03/01 04:38:36;;;;;;;14.32;7.80;;;0.30;69.40;;;;;;4999299;28;20038;-65
2021/03/01 04:41:04;;;;;;;15.30;7.85;;;0.20;69.30;;;;;;4997491;28;20033;-65
2021/03/01 04:43:35;;;;;;;15.48;7.22;;;0.10;69.30;;;;;;4998875;28;20071;-65
2021/03/01 04:46:06;;;;;;;17.05;8.10;;;0.10;69.50;;;;;;4998432;28;20120;-64
2021/03/01 04:48:34;;;;;;;14.07;7.38;;;0.10;69.70;;;;;;4993612;28;20557;-65
2021/03/01 04:51:03;;;;;;;15.20;8.63;;;0.10;69.70;;;;;;4993002;28;20038;-65
2021/03/01 04:53:32;;;;;;;15.20;8.45;;;0.10;69.80;;;;;;4997043;28;20074;-65
2021/03/01 04:55:58;;;;;;;19.92;8.52;;;0.10;69.90;;;;;;4996869;28;20108;-65
2021/03/01 04:58:26;;;;;;;15.00;8.18;;;0.10;69.90;;;;;;4998882;28;20381;-65
2021/03/01 05:00:55;;;;;;;19.42;8.98;;;0.10;70.80;;;;;;4993961;28;20057;-65
2021/03/01 05:03:24;;;;;;;17.33;8.25;;;0.10;69.90;;;;;;4999158;28;20120;-65
2021/03/01 05:05:55;;;;;;;16.02;8.38;;;0.20;70.00;;;;;;4997126;28;20224;-65
2021/03/01 05:08:20;;;;;;;16.95;8.70;;;0.20;69.90;;;;;;4995363;28;20405;-65
2021/03/01 05:10:47;;;;;;;17.45;8.60;;;0.20;69.70;;;;;;4993588;28;20041;-64
2021/03/01 05:13:13;;;;;;;16.20;9.20;;;0.20;69.60;;;;;;4997601;28;20045;-65
2021/03/01 05:15:38;;;;;;;17.40;8.88;;;0.10;69.40;;;;;;4994547;28;20084;-65
2021/03/01 05:18:06;;;;;;;19.40;9.68;;;0.20;69.60;;;;;;4992634;28;20041;-64
2021/03/01 05:20:37;;;;;;;20.45;9.95;;;0.10;69.50;;;;;;4990743;28;20049;-65
2021/03/01 05:23:07;;;;;;;16.73;9.38;;;0.10;69.60;;;;;;4995050;28;20031;-65
2021/03/01 05:25:40;;;;;;;17.38;9.27;;;0.10;69.60;;;;;;4996349;28;20034;-65
2021/03/01 05:28:05;;;;;;;17.10;9.15;;;0.10;69.70;;;;;;5003766;28;20026;-66
2021/03/01 05:30:36;;;;;;;17.65;9.60;;;0.10;69.80;;;;;;4996879;28;20034;-65
2021/03/01 05:33:07;;;;;;;14.77;8.65;;;0.10;69.80;;;;;;5003769;28;20022;-65
2021/03/01 05:35:35;;;;;;;18.52;9.77;;;0.10;70.30;;;;;;4998002;28;20034;-65
2021/03/01 05:38:01;;;;;;;14.90;8.57;;;0.10;70.50;;;;;;4998685;28;20456;-66
2021/03/01 05:40:26;;;;;;;16.65;8.55;;;0.10;70.60;;;;;;4996200;28;20026;-66
2021/03/01 05:42:57;;;;;;;15.55;8.73;;;0.20;70.80;;;;;;4996468;28;20033;-65
2021/03/01 05:45:26;;;;;;;19.40;10.13;;;0.20;72.20;;;;;;4997775;28;20026;-65
2021/03/01 05:47:54;;;;;;;18.05;9.23;;;0.20;71.50;;;;;;4998038;28;20038;-66
2021/03/01 05:50:21;;;;;;;17.13;9.07;;;0.30;71.50;;;;;;4997566;28;20037;-65
2021/03/01 05:52:58;;;;;;;15.25;8.95;;;0.40;71.80;;;;;;4995038;28;20034;-65
2021/03/01 05:55:26;;;;;;;24.45;9.50;;;0.40;71.80;;;;;;5004850;28;20563;-65
2021/03/01 05:57:59;;;;;;;17.83;9.52;;;0.40;71.40;;;;;;4997600;28;20030;-65
2021/03/01 06:00:30;;;;;;;20.60;9.80;;;0.50;71.30;;;;;;4996481;28;20037;-65
2021/03/01 06:03:00;;;;;;;17.75;9.77;;;0.50;71.20;;;;;;4996003;28;20038;-66
2021/03/01 06:05:25;;;;;;;20.20;9.88;;;0.60;71.00;;;;;;4998192;28;20045;-65
2021/03/01 06:07:55;;;;;;;21.48;10.55;;;0.50;70.90;;;;;;4998615;28;20045;-66
2021/03/01 06:10:26;;;;;;;17.10;9.32;;;0.60;71.10;;;;;;4996670;28;20026;-66
2021/03/01 06:12:54;;;;;;;15.63;9.32;;;0.60;70.80;;;;;;4995793;28;20556;-65
2021/03/01 06:15:22;;;;;;;18.70;9.23;;;0.60;70.70;;;;;;5003565;28;20049;-67
2021/03/01 06:18:14;;;;;;;16.40;8.82;;;0.60;70.70;;;;;;4998093;28;20063;-66
2021/03/01 06:20:44;;;;;;;14.00;8.27;;;0.60;71.00;;;;;;4998709;28;20061;-65
2021/03/01 06:23:10;;;;;;;17.10;8.88;;;0.60;70.70;;;;;;4999494;28;20053;-65
2021/03/01 06:25:42;;;;;;;15.25;8.05;;;0.60;70.90;;;;;;4998259;28;20073;-65
2021/03/01 06:28:15;;;;;;;18.88;9.63;;;0.60;71.30;;;;;;4998955;28;20513;-66
2021/03/01 06:30:45;;;;;;;19.92;8.82;;;0.60;71.50;;;;;;4996536;28;20049;-66
2021/03/01 06:33:23;;;;;;;18.67;8.48;;;0.70;71.80;;;;;;4996882;28;20414;-65
2021/03/01 06:35:57;;;;;;;14.23;8.15;;;0.70;72.10;;;;;;4999033;28;20042;-66
2021/03/01 06:38:31;;;;;;;15.85;8.88;;;0.70;72.00;;;;;;4995548;28;20406;-65
2021/03/01 06:41:15;;;;;;;15.02;8.60;;;0.80;72.30;;;;;;4998287;28;20136;-65
2021/03/01 06:43:54;;;;;;;15.85;9.07;;;0.80;72.40;;;;;;5000435;28;20034;-65
2021/03/01 06:46:25;;;;;;;17.13;9.00;;;0.90;72.40;;;;;;5001324;28;20033;-66
2021/03/01 06:48:53;;;;;;;17.52;9.00;;;0.90;72.00;;;;;;5016175;28;20125;-66
2021/03/01 06:51:24;;;;;;;19.15;8.85;;;1.00;72.00;;;;;;5001763;28;20080;-65
2021/03/01 06:53:59;;;;;;;18.80;8.65;;;1.00;72.10;;;;;;5000796;28;20038;-65
2021/03/01 06:56:39;;;;;;;16.58;8.52;;;1.00;72.40;;;;;;4999897;28;20108;-65
2021/03/01 06:59:17;;;;;;;14.32;8.23;;;1.10;72.60;;;;;;5001325;28;20033;-67
2021/03/01 07:01:56;;;;;;;13.50;8.18;;;1.10;72.60;;;;;;5001164;28;20424;-65
2021/03/01 07:04:34;;;;;;;15.05;8.38;;;1.20;72.50;;;;;;5001006;28;20057;-65
2021/03/01 07:07:04;;;;;;;15.35;8.43;;;1.20;72.30;;;;;;5000693;28;20038;-65
2021/03/01 07:09:32;;;;;;;15.52;8.55;;;1.30;72.40;;;;;;4999780;28;20034;-66
2021/03/01 07:12:03;;;;;;;16.73;8.95;;;1.30;72.50;;;;;;4996787;28;20044;-65
2021/03/01 07:14:31;;;;;;;15.30;8.52;;;1.30;72.70;;;;;;4999904;28;20627;-65
2021/03/01 07:17:00;;;;;;;13.52;8.20;;;1.40;72.70;;;;;;5001627;28;20045;-66
2021/03/01 07:19:34;;;;;;;13.68;8.43;;;1.40;72.90;;;;;;4999811;28;20029;-65
2021/03/01 07:22:09;;;;;;;18.58;8.60;;;1.40;73.00;;;;;;5002077;28;20038;-65
2021/03/01 07:24:40;;;;;;;18.38;9.65;;;1.40;72.70;;;;;;4998536;28;20034;-65
2021/03/01 07:27:07;;;;;;;16.58;8.93;;;1.50;72.90;;;;;;5000845;28;20033;-65
2021/03/01 07:29:41;;;;;;;16.40;9.15;;;1.50;72.70;;;;;;4999930;28;20071;-65
2021/03/01 07:32:15;;;;;;;;;;;1.60;72.90;;;;;;5006292;28;20117;-65
2021/03/01 07:34:43;;;;;;;18.08;8.80;;;1.70;73.80;;;;;;5001133;28;20400;-65
2021/03/01 07:37:12;;;;;;;15.02;8.88;;;1.70;72.40;;;;;;5006426;28;20421;-65
2021/03/01 07:39:37;;;;;;;17.65;9.05;;;1.80;72.60;;;;;;4997582;28;20121;-65
2021/03/01 07:42:07;;;;;;;17.10;9.43;;;1.80;72.70;;;;;;5000680;28;20074;-65
2021/03/01 07:44:38;;;;;;;14.13;9.27;;;1.90;72.90;;;;;;5000626;28;20497;-64
2021/03/01 07:47:07;;;;;;;16.15;9.02;;;1.90;72.90;;;;;;5001403;28;20039;-65
2021/03/01 07:49:55;;;;;;;15.88;9.27;;;2.00;73.10;;;;;;4998563;28;20042;-66
2021/03/01 07:52:24;;;;;;;17.60;9.43;;;2.00;73.70;;;;;;5000614;28;20413;-66
2021/03/01 07:55:11;;;;;;;17.90;9.27;;;2.10;73.20;;;;;;5000057;28;20524;-65
2021/03/01 07:57:41;;;;;;;18.60;10.43;;;2.10;73.60;;;;;;5000731;28;20062;-65
2021/03/01 08:00:36;;;;;;;16.85;9.75;;;2.20;73.30;;;;;;4997094;28;20042;-64
2021/03/01 08:03:37;;;;;;;18.77;10.25;;;2.30;74.30;;;;;;4991403;28;20528;-65
2021/03/01 08:06:04;;;;;;;17.75;10.02;;;2.30;74.00;;;;;;5001097;28;20073;-65
2021/03/01 08:08:50;;;;;;;17.60;10.45;;;2.40;73.20;;;;;;4998196;28;20030;-65
2021/03/01 08:11:42;;;;;;;16.95;10.10;;;2.50;74.10;;;;;;5000585;28;20038;-65
2021/03/01 08:14:12;;;;;;;18.27;10.13;;;2.50;74.10;;;;;;5000850;28;20393;-65
2021/03/01 08:16:40;;;;;;;18.45;11.00;;;2.60;73.60;;;;;;4999703;28;20061;-65
2021/03/01 08:19:06;;;;;;;19.60;11.13;;;2.70;73.70;;;;;;5000144;28;20038;-65
2021/03/01 08:22:05;;;;;;;16.15;10.50;;;2.70;73.70;;;;;;4999460;28;20082;-65
2021/03/01 08:24:46;;;;;;;18.15;10.85;;;2.80;74.50;;;;;;4997933;28;20034;-64
2021/03/01 08:27:32;;;;;;;18.83;10.20;;;2.90;74.30;;;;;;5000094;28;20034;-65
2021/03/01 08:30:20;;;;;;;17.05;10.07;;;3.00;74.30;;;;;;5000363;28;20120;-65
2021/03/01 08:33:10;;;;;;;18.38;10.35;;;3.00;74.30;;;;;;4999663;28;20042;-65
2021/03/01 08:35:42;;;;;;;15.55;10.00;;;3.10;74.20;;;;;;4999850;28;20494;-65
2021/03/01 08:38:13;;;;;;;21.90;11.20;;;3.20;73.60;;;;;;5000094;28;20026;-65
2021/03/01 08:40:59;;;;;;;19.15;10.88;;;3.30;73.60;;;;;;4999372;28;20654;-65
2021/03/01 08:43:35;;;;;;;16.88;10.27;;;3.40;73.80;;;;;;5000137;28;20041;-65
2021/03/01 08:46:04;;;;;;;20.95;11.02;;;3.40;73.40;;;;;;4999643;28;20439;-65
2021/03/01 08:48:30;;;;;;;16.83;10.52;;;3.50;73.30;;;;;;4999111;28;20327;-64
2021/03/01 08:51:01;;;;;;;18.98;11.73;;;3.50;73.10;;;;;;4998711;28;20046;-65
2021/03/01 08:53:32;;;;;;;21.30;10.45;;;3.60;73.30;;;;;;5000321;28;20030;-65
2021/03/01 08:56:01;;;;;;;20.17;11.27;;;3.70;73.20;;;;;;5000086;28;20141;-65
2021/03/01 08:58:33;;;;;;;19.05;10.38;;;3.70;73.00;;;;;;4997007;28;20125;-65
2021/03/01 09:01:05;;;;;;;21.63;11.15;;;3.80;73.00;;;;;;4998198;28;20042;-65
2021/03/01 09:03:44;;;;;;;17.15;10.35;;;3.90;73.00;;;;;;4998734;28;20113;-65
2021/03/01 09:06:25;;;;;;;18.58;10.77;;;3.90;73.00;;;;;;5000359;28;20494;-65
2021/03/01 09:08:58;;;;;;;15.25;9.95;;;4.00;73.10;;;;;;4995944;28;20041;-65
2021/03/01 09:11:32;;;;;;;18.15;10.82;;;4.00;72.90;;;;;;4997180;28;20518;-65
2021/03/01 09:14:03;;;;;;;22.35;11.43;;;4.10;72.90;;;;;;4998971;28;20521;-65
2021/03/01 09:16:36;;;;;;;19.30;11.00;;;4.20;72.80;;;;;;4998573;28;20048;-65
2021/03/01 09:19:11;;;;;;;18.55;10.73;;;4.20;72.70;;;;;;4999860;28;20458;-65
2021/03/01 09:21:40;;;;;;;18.63;11.88;;;4.30;73.20;;;;;;4998682;28;20136;-65
2021/03/01 09:24:15;;;;;;;17.17;11.05;;;4.40;72.90;;;;;;4998093;28;20062;-65
2021/03/01 09:26:45;;;;;;;17.95;10.93;;;4.40;72.90;;;;;;4999318;28;20461;-65
2021/03/01 09:29:16;;;;;;;19.15;11.27;;;4.50;72.80;;;;;;4999202;28;20485;-65
2021/03/01 09:31:50;;;;;;;19.45;11.43;;;4.60;72.80;;;;;;4999187;28;20457;-65
2021/03/01 09:34:21;;;;;;;17.73;11.35;;;4.70;72.70;;;;;;4999137;28;20038;-65
2021/03/01 09:36:53;;;;;;;16.88;10.73;;;4.80;72.70;;;;;;4998861;28;20062;-65
2021/03/01 09:39:28;;;;;;;16.70;11.35;;;4.80;72.50;;;;;;4999726;28;20046;-65
2021/03/01 09:41:55;;;;;;;19.73;11.88;;;4.90;72.60;;;;;;4996624;28;20054;-65
2021/03/01 09:44:35;;;;;;;16.60;10.80;;;5.00;72.40;;;;;;4998135;28;20038;-65
2021/03/01 09:47:06;;;;;;;17.83;10.98;;;5.10;72.20;;;;;;4998021;28;20029;-64
2021/03/01 09:49:39;;;;;;;17.50;11.23;;;5.20;72.10;;;;;;4998928;28;20095;-65
2021/03/01 09:52:08;;;;;;;16.65;10.73;;;5.30;72.20;;;;;;4996078;28;20042;-65
2021/03/01 09:54:39;;;;;;;20.02;11.73;;;5.40;72.20;;;;;;4996908;28;20494;-65
2021/03/01 09:57:10;;;;;;;17.52;11.25;;;5.40;72.00;;;;;;4997881;28;20064;-65
2021/03/01 09:59:43;;;;;;;18.70;11.77;;;5.50;72.00;;;;;;4997511;28;20034;-65
2021/03/01 10:02:23;;;;;;;17.98;11.27;;;5.70;71.90;;;;;;4999115;28;20034;-65
2021/03/01 10:05:09;;;;;;;18.05;11.60;;;5.70;71.60;;;;;;4999085;28;20132;-66
2021/03/01 10:07:39;;;;;;;18.02;11.13;;;5.80;71.40;;;;;;5003254;28;20030;-65
2021/03/01 10:10:16;;;;;;;16.10;10.93;;;5.90;71.20;;;;;;5001759;28;20038;-65
2021/03/01 10:12:49;;;;;;;16.23;11.02;;;5.90;71.00;;;;;;4995474;28;20030;-65
2021/03/01 10:15:23;;;;;;;17.15;11.23;;;6.00;70.90;;;;;;4999358;28;20034;-65
2021/03/01 10:18:11;;;;;;;17.08;10.63;;;6.10;70.80;;;;;;4998419;28;20494;-64
2021/03/01 10:20:53;;;;;;;19.33;10.70;;;6.20;70.60;;;;;;4998016;28;20038;-65
2021/03/01 10:23:37;;;;;;;17.02;10.63;;;6.30;70.60;;;;;;4997334;28;20035;-65
2021/03/01 10:26:21;;;;;;;22.33;11.35;;;6.40;70.50;;;;;;4998862;28;20066;-66
2021/03/01 10:29:01;;;;;;;18.17;11.52;;;6.50;70.50;;;;;;4997749;28;20085;-66
2021/03/01 10:31:37;;;;;;;15.82;10.40;;;6.50;70.00;;;;;;4997427;28;20042;-65
2021/03/01 10:34:11;;;;;;;17.38;10.13;;;6.60;70.10;;;;;;5013785;28;20129;-66
2021/03/01 10:36:54;;;;;;;18.20;10.40;;;6.70;70.00;;;;;;4997737;28;20046;-65
2021/03/01 10:39:28;;;;;;;14.07;9.57;;;6.80;70.00;;;;;;4998539;28;20280;-64
2021/03/01 10:42:02;;;;;;;16.42;10.57;;;6.90;70.00;;;;;;4996677;28;20417;-65
2021/03/01 10:44:35;;;;;;;14.55;10.25;;;7.00;69.80;;;;;;4998078;28;20035;-65
2021/03/01 10:47:22;;;;;;;14.55;9.20;;;7.10;69.60;;;;;;4998421;28;20125;-65
2021/03/01 10:49:57;;;;;;;14.10;9.55;;;7.20;68.90;;;;;;4996504;28;20046;-66
2021/03/01 10:52:24;;;;;;;14.20;9.40;;;7.30;69.00;;;;;;4997051;28;20043;-66
2021/03/01 10:54:54;;;;;;;12.93;8.85;;;7.40;69.00;;;;;;4998666;28;20038;-65
2021/03/01 10:57:23;;;;;;;13.48;9.43;;;7.50;68.60;;;;;;4996166;28;20042;-64
2021/03/01 10:59:55;;;;;;;16.67;9.73;;;7.60;68.40;;;;;;4998017;28;20042;-66
2021/03/01 11:02:21;;;;;;;13.80;9.85;;;7.70;68.10;;;;;;4995601;28;20033;-66
2021/03/01 11:04:52;;;;;;;14.45;9.68;;;7.80;68.00;;;;;;5004122;28;20042;-66
2021/03/01 11:07:20;;;;;;;13.63;8.95;;;7.90;67.70;;;;;;4998088;28;20041;-66
2021/03/01 11:09:48;;;;;;;15.68;9.25;;;8.00;67.20;;;;;;4996089;28;20113;-66
2021/03/01 11:12:16;;;;;;;14.88;8.98;;;8.10;67.10;;;;;;5000165;28;20050;-66
2021/03/01 11:14:44;;;;;;;11.43;8.65;;;8.20;67.60;;;;;;4997006;28;20030;-66
2021/03/01 11:17:11;;;;;;;15.32;9.85;;;8.20;66.70;;;;;;5002237;28;20045;-67
2021/03/01 11:19:39;;;;;;;14.07;9.40;;;8.40;66.20;;;;;;5001316;28;20522;-66
2021/03/01 11:22:07;;;;;;;15.15;9.35;;;8.50;65.90;;;;;;4997286;28;20042;-65
2021/03/01 11:24:35;;;;;;;12.93;9.18;;;8.60;65.90;;;;;;4997762;28;20034;-65
2021/03/01 11:27:01;;;;;;;11.68;8.98;;;8.60;65.90;;;;;;4998819;28;20045;-66
2021/03/01 11:29:34;;;;;;;11.65;8.25;;;8.70;65.50;;;;;;4999621;28;20038;-66
2021/03/01 11:32:02;;;;;;;11.23;7.80;;;8.80;65.20;;;;;;4999613;28;20054;-66
2021/03/01 11:34:30;;;;;;;10.98;8.15;;;8.90;65.10;;;;;;5001429;28;20081;-66
2021/03/01 11:37:02;;;;;;;11.45;8.23;;;8.90;65.10;;;;;;5000594;28;20557;-66
2021/03/01 11:39:30;;;;;;;11.65;7.88;;;9.00;64.70;;;;;;5001285;28;20467;-66
2021/03/01 11:41:58;;;;;;;10.20;8.02;;;9.10;64.60;;;;;;5000793;28;20066;-66
2021/03/01 11:44:26;;;;;;;10.57;7.85;;;9.20;64.50;;;;;;5000642;28;20121;-66
2021/03/01 11:46:52;;;;;;;11.57;8.23;;;9.30;64.10;;;;;;5001558;28;20037;-66
2021/03/01 11:49:17;;;;;;;10.88;8.05;;;9.40;64.70;;;;;;5000654;28;20037;-66
2021/03/01 11:51:45;;;;;;;12.07;8.02;;;9.50;63.60;;;;;;4998289;28;20100;-66
2021/03/01 11:54:13;;;;;;;10.15;7.50;;;9.60;63.50;;;;;;4999874;28;20572;-66
2021/03/01 11:56:41;;;;;;;11.00;8.32;;;9.70;63.20;;;;;;4998115;28;20042;-66
2021/03/01 11:59:09;;;;;;;10.50;7.28;;;9.80;63.10;;;;;;5000765;28;20080;-66
2021/03/01 12:01:41;;;;;;;10.02;7.13;;;9.80;62.70;;;;;;5000205;28;20038;-66
2021/03/01 12:04:09;;;;;;;11.25;7.40;;;9.90;62.10;;;;;;5001353;28;20058;-67
2021/03/01 12:06:39;;;;;;;9.80;7.00;;;10.00;62.10;;;;;;5000440;28;20038;-66
2021/03/01 12:09:10;;;;;;;9.38;6.97;;;10.10;61.70;;;;;;5001035;28;20455;-66
2021/03/01 12:11:40;;;;;;;11.35;7.43;;;10.20;61.90;;;;;;4999939;28;20042;-66
2021/03/01 12:14:07;;;;;;;9.55;7.22;;;10.30;61.30;;;;;;4998217;28;20121;-66
2021/03/01 12:16:38;;;;;;;10.50;6.85;;;10.40;60.90;;;;;;4999278;28;20041;-66
2021/03/01 12:19:08;;;;;;;7.75;6.55;;;10.40;60.90;;;;;;4999390;28;20120;-66
2021/03/01 12:21:38;;;;;;;8.82;6.22;;;10.50;60.30;;;;;;4999669;28;20038;-67
2021/03/01 12:24:09;;;;;;;8.27;6.05;;;10.60;60.10;;;;;;5001259;28;20030;-66
2021/03/01 12:26:37;;;;;;;9.13;6.72;;;10.70;60.30;;;;;;4999469;28;20030;-66
2021/03/01 12:29:08;;;;;;;9.00;6.68;;;10.70;60.00;;;;;;4999758;28;20502;-66
2021/03/01 12:31:36;;;;;;;8.45;6.53;;;10.80;59.90;;;;;;5000053;28;20468;-66
2021/03/01 12:34:02;;;;;;;8.38;6.28;;;10.90;59.80;;;;;;5001183;28;20065;-66
2021/03/01 12:36:31;;;;;;;8.35;6.60;;;10.90;59.20;;;;;;4998823;28;20054;-67
2021/03/01 12:39:01;;;;;;;8.50;6.40;;;11.00;59.00;;;;;;4998372;28;20841;-66
2021/03/01 12:41:31;;;;;;;8.10;5.93;;;11.10;59.10;;;;;;4999958;28;20034;-66
2021/03/01 12:43:59;;;;;;;7.88;5.90;;;11.10;58.70;;;;;;4999459;28;20125;-66
2021/03/01 12:46:25;;;;;;;8.02;5.88;;;11.10;58.70;;;;;;4999372;28;20034;-66
2021/03/01 12:48:56;;;;;;;7.28;5.70;;;11.20;58.70;;;;;;5000262;28;20038;-67
2021/03/01 12:51:24;;;;;;;6.68;5.97;;;11.30;58.20;;;;;;4997816;28;20504;-67
2021/03/01 12:53:49;;;;;;;9.77;6.05;;;11.40;58.00;;;;;;4997728;28;20034;-66
2021/03/01 12:56:17;;;;;;;7.55;6.07;;;11.40;58.00;;;;;;4999092;28;20500;-66
2021/03/01 12:58:45;;;;;;;9.98;6.18;;;11.50;57.60;;;;;;4997886;28;20073;-66
2021/03/01 13:01:13;;;;;;;10.63;6.07;;;11.50;57.50;;;;;;4999124;28;20379;-66
2021/03/01 13:03:41;;;;;;;7.00;5.95;;;11.60;57.50;;;;;;4998071;28;20060;-66
2021/03/01 13:06:14;;;;;;;7.57;5.45;;;11.60;57.60;;;;;;5000317;28;20472;-66
2021/03/01 13:08:42;;;;;;;8.38;5.40;;;11.60;57.30;;;;;;4997917;28;20469;-67